sensor_id;sensor_type;location;lat;lon;timestamp;pressure;altitude;pressure_sealevel;temperature;humidity
70544;BME280;58097;48.364;-1.224;2023-03-25T00:02:24;99059.59;;;8.71;85.38
70544;BME280;58097;48.364;-1.224;2023-03-25T00:04:52;99083.03;;;8.75;85.03
70544;BME280;58097;48.364;-1.224;2023-03-25T00:07:19;99085.25;;;8.79;84.74
70544;BME280;58097;48.364;-1.224;2023-03-25T00:09:46;99088.69;;;8.81;84.44
70544;BME280;58097;48.364;-1.224;2023-03-25T00:12:13;99091.28;;;8.83;84.30
70544;BME280;58097;48.364;-1.224;2023-03-25T00:14:39;99086.63;;;8.83;84.00
70544;BME280;58097;48.364;-1.224;2023-03-25T00:17:06;99089.72;;;8.80;83.34
70544;BME280;58097;48.364;-1.224;2023-03-25T00:19:33;99081.47;;;8.72;82.80
70544;BME280;58097;48.364;-1.224;2023-03-25T00:21:59;99091.94;;;8.60;82.73
70544;BME280;58097;48.364;-1.224;2023-03-25T00:24:25;99097.09;;;8.55;82.70
70544;BME280;58097;48.364;-1.224;2023-03-25T00:26:51;99092.94;;;8.51;83.08
70544;BME280;58097;48.364;-1.224;2023-03-25T00:29:19;99105.84;;;8.51;83.25
70544;BME280;58097;48.364;-1.224;2023-03-25T00:31:45;99103.78;;;8.53;84.14
70544;BME280;58097;48.364;-1.224;2023-03-25T00:34:10;99101.03;;;8.53;84.03
70544;BME280;58097;48.364;-1.224;2023-03-25T00:36:38;99106.91;;;8.58;84.18
70544;BME280;58097;48.364;-1.224;2023-03-25T00:39:06;99105.00;;;8.58;84.56
70544;BME280;58097;48.364;-1.224;2023-03-25T00:41:31;99107.41;;;8.61;84.73
70544;BME280;58097;48.364;-1.224;2023-03-25T00:43:59;99111.03;;;8.62;84.81
70544;BME280;58097;48.364;-1.224;2023-03-25T00:46:27;99109.16;;;8.62;85.14
70544;BME280;58097;48.364;-1.224;2023-03-25T00:48:54;99112.56;;;8.56;84.82
70544;BME280;58097;48.364;-1.224;2023-03-25T00:51:20;99118.94;;;8.49;85.01
70544;BME280;58097;48.364;-1.224;2023-03-25T00:53:49;99122.88;;;8.46;85.15
70544;BME280;58097;48.364;-1.224;2023-03-25T00:56:17;99120.97;;;8.38;85.64
70544;BME280;58097;48.364;-1.224;2023-03-25T00:58:42;99111.44;;;8.33;86.44
70544;BME280;58097;48.364;-1.224;2023-03-25T01:01:10;99114.19;;;8.33;86.71
70544;BME280;58097;48.364;-1.224;2023-03-25T01:03:38;99112.84;;;8.37;86.86
70544;BME280;58097;48.364;-1.224;2023-03-25T01:06:11;99124.25;;;8.42;86.88
70544;BME280;58097;48.364;-1.224;2023-03-25T01:08:38;99125.81;;;8.45;87.08
70544;BME280;58097;48.364;-1.224;2023-03-25T01:11:04;99127.69;;;8.44;87.26
70544;BME280;58097;48.364;-1.224;2023-03-25T01:13:30;99124.78;;;8.46;87.01
70544;BME280;58097;48.364;-1.224;2023-03-25T01:15:55;99120.81;;;8.48;87.13
70544;BME280;58097;48.364;-1.224;2023-03-25T01:18:20;99114.78;;;8.45;87.05
70544;BME280;58097;48.364;-1.224;2023-03-25T01:20:46;99122.84;;;8.38;86.56
70544;BME280;58097;48.364;-1.224;2023-03-25T01:23:11;99118.13;;;8.30;86.50
70544;BME280;58097;48.364;-1.224;2023-03-25T01:25:37;99120.16;;;8.20;87.05
70544;BME280;58097;48.364;-1.224;2023-03-25T01:28:02;99110.53;;;8.16;87.07
70544;BME280;58097;48.364;-1.224;2023-03-25T01:30:28;99111.03;;;8.12;87.49
70544;BME280;58097;48.364;-1.224;2023-03-25T01:32:54;99112.91;;;8.11;88.40
70544;BME280;58097;48.364;-1.224;2023-03-25T01:35:19;99115.31;;;8.14;88.32
70544;BME280;58097;48.364;-1.224;2023-03-25T01:37:45;99122.38;;;8.17;88.11
70544;BME280;58097;48.364;-1.224;2023-03-25T01:40:18;99123.09;;;8.19;88.02
70544;BME280;58097;48.364;-1.224;2023-03-25T01:42:44;99114.50;;;8.22;87.84
70544;BME280;58097;48.364;-1.224;2023-03-25T01:45:30;99128.94;;;8.24;87.71
70544;BME280;58097;48.364;-1.224;2023-03-25T01:48:13;99123.78;;;8.21;87.31
70544;BME280;58097;48.364;-1.224;2023-03-25T01:50:44;99112.41;;;8.16;86.79
70544;BME280;58097;48.364;-1.224;2023-03-25T01:53:12;99123.19;;;8.09;86.49
70544;BME280;58097;48.364;-1.224;2023-03-25T01:55:37;99108.53;;;8.00;86.91
70544;BME280;58097;48.364;-1.224;2023-03-25T01:58:07;99115.56;;;7.95;87.09
70544;BME280;58097;48.364;-1.224;2023-03-25T02:00:39;99112.13;;;7.93;87.20
70544;BME280;58097;48.364;-1.224;2023-03-25T02:03:05;99104.56;;;7.95;87.86
70544;BME280;58097;48.364;-1.224;2023-03-25T02:08:03;99115.94;;;8.00;87.67
70544;BME280;58097;48.364;-1.224;2023-03-25T02:10:30;99115.59;;;8.03;87.54
70544;BME280;58097;48.364;-1.224;2023-03-25T02:12:56;99116.13;;;8.06;87.34
70544;BME280;58097;48.364;-1.224;2023-03-25T02:15:22;99121.78;;;8.05;87.44
70544;BME280;58097;48.364;-1.224;2023-03-25T02:32:30;99135.56;;;7.79;88.37
70544;BME280;58097;48.364;-1.224;2023-03-25T02:37:53;99133.94;;;7.86;88.64
70544;BME280;58097;48.364;-1.224;2023-03-25T02:43:31;99124.16;;;7.92;88.76
70544;BME280;58097;48.364;-1.224;2023-03-25T02:46:03;99129.31;;;7.95;88.78
70544;BME280;58097;48.364;-1.224;2023-03-25T02:48:36;99119.19;;;7.95;88.75
70544;BME280;58097;48.364;-1.224;2023-03-25T02:51:09;99138.06;;;7.90;88.63
70544;BME280;58097;48.364;-1.224;2023-03-25T02:53:38;99127.72;;;7.84;88.10
70544;BME280;58097;48.364;-1.224;2023-03-25T02:56:11;99123.53;;;7.80;88.42
70544;BME280;58097;48.364;-1.224;2023-03-25T02:58:40;99125.75;;;7.76;88.55
70544;BME280;58097;48.364;-1.224;2023-03-25T03:01:06;99121.63;;;7.72;88.95
70544;BME280;58097;48.364;-1.224;2023-03-25T03:03:35;99128.16;;;7.71;88.96
70544;BME280;58097;48.364;-1.224;2023-03-25T03:06:02;99126.41;;;7.70;89.11
70544;BME280;58097;48.364;-1.224;2023-03-25T03:11:30;99138.78;;;7.66;88.77
70544;BME280;58097;48.364;-1.224;2023-03-25T03:20:08;99149.03;;;7.56;89.96
70544;BME280;58097;48.364;-1.224;2023-03-25T03:28:21;99161.09;;;7.63;90.29
70544;BME280;58097;48.364;-1.224;2023-03-25T03:33:40;99153.72;;;7.64;90.16
70544;BME280;58097;48.364;-1.224;2023-03-25T03:36:11;99168.84;;;7.68;91.06
70544;BME280;58097;48.364;-1.224;2023-03-25T03:38:44;99168.84;;;7.68;91.13
70544;BME280;58097;48.364;-1.224;2023-03-25T03:41:17;99163.03;;;7.71;91.17
70544;BME280;58097;48.364;-1.224;2023-03-25T03:43:59;99164.59;;;7.73;91.05
70544;BME280;58097;48.364;-1.224;2023-03-25T03:46:33;99160.66;;;7.76;91.42
70544;BME280;58097;48.364;-1.224;2023-03-25T03:49:02;99159.47;;;7.78;91.39
70544;BME280;58097;48.364;-1.224;2023-03-25T03:57:00;99162.72;;;7.74;91.45
70544;BME280;58097;48.364;-1.224;2023-03-25T04:02:07;99157.75;;;7.77;91.64
70544;BME280;58097;48.364;-1.224;2023-03-25T04:04:38;99166.84;;;7.78;91.64
70544;BME280;58097;48.364;-1.224;2023-03-25T04:07:16;99173.22;;;7.78;91.52
70544;BME280;58097;48.364;-1.224;2023-03-25T04:09:59;99173.22;;;7.78;91.86
70544;BME280;58097;48.364;-1.224;2023-03-25T04:12:33;99175.81;;;7.80;91.72
70544;BME280;58097;48.364;-1.224;2023-03-25T04:15:02;99180.78;;;7.76;90.88
70544;BME280;58097;48.364;-1.224;2023-03-25T04:17:28;99180.06;;;7.74;90.85
70544;BME280;58097;48.364;-1.224;2023-03-25T04:19:55;99185.34;;;7.68;90.86
70544;BME280;58097;48.364;-1.224;2023-03-25T04:22:20;99194.78;;;7.65;91.24
70544;BME280;58097;48.364;-1.224;2023-03-25T04:24:46;99201.47;;;7.63;91.26
70544;BME280;58097;48.364;-1.224;2023-03-25T04:27:15;99205.97;;;7.64;91.70
70544;BME280;58097;48.364;-1.224;2023-03-25T04:29:40;99213.88;;;7.67;92.12
70544;BME280;58097;48.364;-1.224;2023-03-25T04:32:10;99217.34;;;7.69;92.16
70544;BME280;58097;48.364;-1.224;2023-03-25T04:34:35;99217.00;;;7.72;91.95
70544;BME280;58097;48.364;-1.224;2023-03-25T04:37:01;99225.25;;;7.72;92.26
70544;BME280;58097;48.364;-1.224;2023-03-25T04:39:27;99230.44;;;7.75;92.01
70544;BME280;58097;48.364;-1.224;2023-03-25T04:41:54;99239.41;;;7.77;92.02
70544;BME280;58097;48.364;-1.224;2023-03-25T04:44:21;99237.50;;;7.77;91.77
70544;BME280;58097;48.364;-1.224;2023-03-25T04:46:50;99236.09;;;7.73;91.45
70544;BME280;58097;48.364;-1.224;2023-03-25T04:49:21;99241.75;;;7.72;91.09
70544;BME280;58097;48.364;-1.224;2023-03-25T04:51:50;99239.72;;;7.74;91.27
70544;BME280;58097;48.364;-1.224;2023-03-25T04:54:16;99240.75;;;7.73;92.06
70544;BME280;58097;48.364;-1.224;2023-03-25T04:56:42;99243.88;;;7.78;92.15
70544;BME280;58097;48.364;-1.224;2023-03-25T04:59:07;99238.94;;;7.82;92.16
70544;BME280;58097;48.364;-1.224;2023-03-25T05:01:36;99247.91;;;7.84;92.14
70544;BME280;58097;48.364;-1.224;2023-03-25T05:04:07;99251.19;;;7.87;92.09
70544;BME280;58097;48.364;-1.224;2023-03-25T05:06:38;99248.44;;;7.87;92.40
70544;BME280;58097;48.364;-1.224;2023-03-25T05:09:06;99244.66;;;7.88;92.11
70544;BME280;58097;48.364;-1.224;2023-03-25T05:11:33;99242.06;;;7.87;92.00
70544;BME280;58097;48.364;-1.224;2023-03-25T05:14:00;99245.16;;;7.84;91.39
70544;BME280;58097;48.364;-1.224;2023-03-25T05:16:25;99239.06;;;7.80;91.44
70544;BME280;58097;48.364;-1.224;2023-03-25T05:18:51;99248.50;;;7.77;91.42
70544;BME280;58097;48.364;-1.224;2023-03-25T05:21:16;99248.66;;;7.76;91.52
70544;BME280;58097;48.364;-1.224;2023-03-25T05:23:42;99256.06;;;7.75;91.89
70544;BME280;58097;48.364;-1.224;2023-03-25T05:26:08;99254.16;;;7.76;92.69
70544;BME280;58097;48.364;-1.224;2023-03-25T05:28:36;99258.47;;;7.78;92.70
70544;BME280;58097;48.364;-1.224;2023-03-25T05:31:02;99262.97;;;7.80;92.60
70544;BME280;58097;48.364;-1.224;2023-03-25T05:33:37;99263.13;;;7.78;92.42
70544;BME280;58097;48.364;-1.224;2023-03-25T05:36:12;99258.19;;;7.82;91.92
70544;BME280;58097;48.364;-1.224;2023-03-25T05:38:39;99275.41;;;7.84;91.96
70544;BME280;58097;48.364;-1.224;2023-03-25T05:41:13;99279.47;;;7.80;91.92
70544;BME280;58097;48.364;-1.224;2023-03-25T05:43:44;99280.81;;;7.75;91.29
70544;BME280;58097;48.364;-1.224;2023-03-25T05:46:12;99285.94;;;7.70;90.85
70544;BME280;58097;48.364;-1.224;2023-03-25T05:48:38;99285.53;;;7.65;91.07
70544;BME280;58097;48.364;-1.224;2023-03-25T05:51:10;99283.28;;;7.61;90.97
70544;BME280;58097;48.364;-1.224;2023-03-25T05:53:38;99294.75;;;7.56;91.48
70544;BME280;58097;48.364;-1.224;2023-03-25T05:56:04;99300.25;;;7.56;91.98
70544;BME280;58097;48.364;-1.224;2023-03-25T05:58:29;99295.13;;;7.61;92.71
70544;BME280;58097;48.364;-1.224;2023-03-25T06:00:56;99296.38;;;7.67;92.57
70544;BME280;58097;48.364;-1.224;2023-03-25T06:03:23;99308.63;;;7.72;92.74
70544;BME280;58097;48.364;-1.224;2023-03-25T06:05:50;99304.69;;;7.75;92.81
70544;BME280;58097;48.364;-1.224;2023-03-25T06:08:17;99315.22;;;7.80;92.79
70544;BME280;58097;48.364;-1.224;2023-03-25T06:10:43;99319.72;;;7.81;92.55
70544;BME280;58097;48.364;-1.224;2023-03-25T06:13:10;99310.47;;;7.82;92.39
70544;BME280;58097;48.364;-1.224;2023-03-25T06:15:35;99320.72;;;7.80;91.63
70544;BME280;58097;48.364;-1.224;2023-03-25T06:18:03;99323.78;;;7.76;91.30
70544;BME280;58097;48.364;-1.224;2023-03-25T06:20:29;99328.75;;;7.73;91.54
70544;BME280;58097;48.364;-1.224;2023-03-25T06:22:54;99320.13;;;7.68;92.47
70544;BME280;58097;48.364;-1.224;2023-03-25T06:25:20;99330.41;;;7.66;92.46
70544;BME280;58097;48.364;-1.224;2023-03-25T06:27:47;99335.59;;;7.69;93.17
70544;BME280;58097;48.364;-1.224;2023-03-25T06:30:15;99338.34;;;7.69;93.46
70544;BME280;58097;48.364;-1.224;2023-03-25T06:32:41;99339.75;;;7.73;93.39
70544;BME280;58097;48.364;-1.224;2023-03-25T06:35:08;99351.13;;;7.78;93.14
70544;BME280;58097;48.364;-1.224;2023-03-25T06:37:34;99357.22;;;7.82;93.12
70544;BME280;58097;48.364;-1.224;2023-03-25T06:40:00;99361.38;;;7.86;92.96
70544;BME280;58097;48.364;-1.224;2023-03-25T06:42:26;99359.34;;;7.88;92.91
70544;BME280;58097;48.364;-1.224;2023-03-25T06:44:53;99360.03;;;7.90;92.52
70544;BME280;58097;48.364;-1.224;2023-03-25T06:47:19;99344.72;;;7.87;92.35
70544;BME280;58097;48.364;-1.224;2023-03-25T06:49:44;99360.53;;;7.85;92.12
70544;BME280;58097;48.364;-1.224;2023-03-25T06:52:10;99352.25;;;7.85;91.80
70544;BME280;58097;48.364;-1.224;2023-03-25T06:54:36;99348.50;;;7.86;92.36
70544;BME280;58097;48.364;-1.224;2023-03-25T06:57:01;99345.97;;;7.93;92.75
70544;BME280;58097;48.364;-1.224;2023-03-25T06:59:26;99354.28;;;8.01;92.81
70544;BME280;58097;48.364;-1.224;2023-03-25T07:01:52;99356.09;;;8.10;92.52
70544;BME280;58097;48.364;-1.224;2023-03-25T07:04:17;99348.94;;;8.17;92.27
70544;BME280;58097;48.364;-1.224;2023-03-25T07:06:42;99358.28;;;8.24;91.68
70544;BME280;58097;48.364;-1.224;2023-03-25T07:09:08;99358.31;;;8.32;91.59
70544;BME280;58097;48.364;-1.224;2023-03-25T07:11:34;99362.22;;;8.40;91.24
70544;BME280;58097;48.364;-1.224;2023-03-25T07:14:00;99371.19;;;8.42;90.85
70544;BME280;58097;48.364;-1.224;2023-03-25T07:16:25;99368.44;;;8.42;90.22
70544;BME280;58097;48.364;-1.224;2023-03-25T07:18:51;99371.19;;;8.42;89.80
70544;BME280;58097;48.364;-1.224;2023-03-25T07:21:17;99374.81;;;8.42;89.79
70544;BME280;58097;48.364;-1.224;2023-03-25T07:23:43;99385.81;;;8.42;89.41
70544;BME280;58097;48.364;-1.224;2023-03-25T07:26:09;99382.03;;;8.43;90.03
70544;BME280;58097;48.364;-1.224;2023-03-25T07:28:34;99388.78;;;8.49;90.01
70544;BME280;58097;48.364;-1.224;2023-03-25T07:31:05;99391.59;;;8.57;90.04
70544;BME280;58097;48.364;-1.224;2023-03-25T07:33:30;99400.75;;;8.65;89.91
70544;BME280;58097;48.364;-1.224;2023-03-25T07:35:56;99402.56;;;8.75;89.61
70544;BME280;58097;48.364;-1.224;2023-03-25T07:38:21;99389.00;;;8.81;89.37
70544;BME280;58097;48.364;-1.224;2023-03-25T07:40:46;99394.88;;;8.86;88.68
70544;BME280;58097;48.364;-1.224;2023-03-25T07:43:12;99394.72;;;8.88;88.59
70544;BME280;58097;48.364;-1.224;2023-03-25T07:45:37;99396.63;;;8.87;87.88
70544;BME280;58097;48.364;-1.224;2023-03-25T07:48:02;99391.81;;;8.89;88.07
70544;BME280;58097;48.364;-1.224;2023-03-25T07:50:28;99392.50;;;8.91;88.21
70544;BME280;58097;48.364;-1.224;2023-03-25T07:52:54;99397.22;;;8.99;88.35
70544;BME280;58097;48.364;-1.224;2023-03-25T07:55:20;99404.66;;;9.07;88.15
70544;BME280;58097;48.364;-1.224;2023-03-25T07:57:45;99402.44;;;9.10;87.80
70544;BME280;58097;48.364;-1.224;2023-03-25T08:00:11;99406.41;;;9.16;87.55
70544;BME280;58097;48.364;-1.224;2023-03-25T08:02:37;99412.47;;;9.19;87.20
70544;BME280;58097;48.364;-1.224;2023-03-25T08:05:03;99418.50;;;9.23;87.11
70544;BME280;58097;48.364;-1.224;2023-03-25T08:07:30;99421.44;;;9.21;86.29
70544;BME280;58097;48.364;-1.224;2023-03-25T08:09:55;99424.53;;;9.18;86.18
70544;BME280;58097;48.364;-1.224;2023-03-25T08:12:20;99435.22;;;9.21;86.38
70544;BME280;58097;48.364;-1.224;2023-03-25T08:14:46;99437.09;;;9.21;86.45
70544;BME280;58097;48.364;-1.224;2023-03-25T08:17:11;99440.63;;;9.31;87.10
70544;BME280;58097;48.364;-1.224;2023-03-25T08:19:37;99435.66;;;9.35;86.40
70544;BME280;58097;48.364;-1.224;2023-03-25T08:22:02;99432.41;;;9.47;87.07
70544;BME280;58097;48.364;-1.224;2023-03-25T08:24:28;99444.53;;;9.54;86.60
70544;BME280;58097;48.364;-1.224;2023-03-25T08:26:54;99452.13;;;9.60;86.16
70544;BME280;58097;48.364;-1.224;2023-03-25T08:29:19;99453.03;;;9.69;86.08
70544;BME280;58097;48.364;-1.224;2023-03-25T08:31:45;99447.53;;;9.77;86.43
70544;BME280;58097;48.364;-1.224;2023-03-25T08:34:16;99449.59;;;9.75;85.51
70544;BME280;58097;48.364;-1.224;2023-03-25T08:36:41;99447.34;;;9.79;85.54
70544;BME280;58097;48.364;-1.224;2023-03-25T08:39:07;99463.56;;;9.82;85.44
70544;BME280;58097;48.364;-1.224;2023-03-25T08:41:34;99471.56;;;9.93;85.93
70544;BME280;58097;48.364;-1.224;2023-03-25T08:43:59;99465.34;;;9.91;84.56
70544;BME280;58097;48.364;-1.224;2023-03-25T08:46:24;99463.81;;;9.97;85.15
70544;BME280;58097;48.364;-1.224;2023-03-25T08:48:50;99474.34;;;10.01;84.72
70544;BME280;58097;48.364;-1.224;2023-03-25T08:51:16;99470.22;;;10.05;84.82
70544;BME280;58097;48.364;-1.224;2023-03-25T08:53:41;99477.09;;;10.01;84.38
70544;BME280;58097;48.364;-1.224;2023-03-25T08:56:08;99470.72;;;9.92;84.40
70544;BME280;58097;48.364;-1.224;2023-03-25T08:58:33;99476.22;;;9.92;85.02
70544;BME280;58097;48.364;-1.224;2023-03-25T09:00:59;99472.97;;;9.97;84.88
70544;BME280;58097;48.364;-1.224;2023-03-25T09:03:24;99485.38;;;10.01;84.71
70544;BME280;58097;48.364;-1.224;2023-03-25T09:05:51;99476.75;;;10.04;84.62
70544;BME280;58097;48.364;-1.224;2023-03-25T09:08:17;99488.72;;;10.13;85.03
70544;BME280;58097;48.364;-1.224;2023-03-25T09:10:43;99480.78;;;10.18;84.32
70544;BME280;58097;48.364;-1.224;2023-03-25T09:13:08;99489.63;;;10.30;84.93
70544;BME280;58097;48.364;-1.224;2023-03-25T09:15:34;99468.75;;;10.27;83.89
70544;BME280;58097;48.364;-1.224;2023-03-25T09:17:59;99496.53;;;10.26;84.01
70544;BME280;58097;48.364;-1.224;2023-03-25T09:20:25;99487.91;;;10.29;84.22
70544;BME280;58097;48.364;-1.224;2023-03-25T09:22:50;99485.16;;;10.37;84.41
70544;BME280;58097;48.364;-1.224;2023-03-25T09:25:16;99495.00;;;10.39;83.72
70544;BME280;58097;48.364;-1.224;2023-03-25T09:27:42;99497.44;;;10.50;84.39
70544;BME280;58097;48.364;-1.224;2023-03-25T09:30:08;99485.19;;;10.53;83.45
70544;BME280;58097;48.364;-1.224;2023-03-25T09:32:33;99498.47;;;10.58;83.83
70544;BME280;58097;48.364;-1.224;2023-03-25T09:34:59;99493.47;;;10.61;83.58
70544;BME280;58097;48.364;-1.224;2023-03-25T09:37:25;99499.16;;;10.60;83.20
70544;BME280;58097;48.364;-1.224;2023-03-25T09:39:50;99500.53;;;10.55;82.97
70544;BME280;58097;48.364;-1.224;2023-03-25T09:42:29;99499.34;;;10.58;83.41
70544;BME280;58097;48.364;-1.224;2023-03-25T09:45:42;99503.13;;;10.65;82.94
70544;BME280;58097;48.364;-1.224;2023-03-25T09:50:46;99505.25;;;10.71;82.51
70544;BME280;58097;48.364;-1.224;2023-03-25T09:55:45;99519.75;;;10.73;81.72
70544;BME280;58097;48.364;-1.224;2023-03-25T10:01:16;99514.38;;;10.80;82.76
70544;BME280;58097;48.364;-1.224;2023-03-25T10:06:19;99517.34;;;11.03;83.40
70544;BME280;58097;48.364;-1.224;2023-03-25T10:13:49;99532.00;;;11.20;81.87
70544;BME280;58097;48.364;-1.224;2023-03-25T10:21:46;99524.72;;;11.18;81.72
70544;BME280;58097;48.364;-1.224;2023-03-25T10:26:56;99517.31;;;11.11;82.16
70544;BME280;58097;48.364;-1.224;2023-03-25T10:29:32;99526.81;;;11.16;82.44
70544;BME280;58097;48.364;-1.224;2023-03-25T10:32:44;99529.03;;;11.21;82.06
70544;BME280;58097;48.364;-1.224;2023-03-25T10:35:16;99534.22;;;11.24;81.64
70544;BME280;58097;48.364;-1.224;2023-03-25T10:37:42;99542.53;;;11.32;82.56
70544;BME280;58097;48.364;-1.224;2023-03-25T10:40:13;99533.19;;;11.33;81.44
70544;BME280;58097;48.364;-1.224;2023-03-25T10:42:54;99532.16;;;11.34;80.91
70544;BME280;58097;48.364;-1.224;2023-03-25T10:45:22;99540.47;;;11.34;81.12
70544;BME280;58097;48.364;-1.224;2023-03-25T10:47:50;99539.09;;;11.30;81.67
70544;BME280;58097;48.364;-1.224;2023-03-25T10:50:19;99538.03;;;11.39;82.18
70544;BME280;58097;48.364;-1.224;2023-03-25T10:52:47;99533.19;;;11.41;81.35
70544;BME280;58097;48.364;-1.224;2023-03-25T10:55:26;99537.31;;;11.45;80.93
70544;BME280;58097;48.364;-1.224;2023-03-25T10:57:53;99542.31;;;11.50;80.37
70544;BME280;58097;48.364;-1.224;2023-03-25T11:00:20;99546.97;;;11.49;80.05
70544;BME280;58097;48.364;-1.224;2023-03-25T11:02:47;99538.84;;;11.48;79.12
70544;BME280;58097;48.364;-1.224;2023-03-25T11:05:16;99544.06;;;11.43;78.96
70544;BME280;58097;48.364;-1.224;2023-03-25T11:07:52;99537.66;;;11.42;79.60
70544;BME280;58097;48.364;-1.224;2023-03-25T11:10:29;99543.56;;;11.39;79.73
70544;BME280;58097;48.364;-1.224;2023-03-25T11:12:57;99527.81;;;11.40;79.31
70544;BME280;58097;48.364;-1.224;2023-03-25T11:15:33;99538.53;;;11.43;79.36
70544;BME280;58097;48.364;-1.224;2023-03-25T11:18:24;99535.75;;;11.51;80.04
70544;BME280;58097;48.364;-1.224;2023-03-25T11:20:50;99535.06;;;11.57;80.13
70544;BME280;58097;48.364;-1.224;2023-03-25T11:23:32;99531.25;;;11.58;78.80
70544;BME280;58097;48.364;-1.224;2023-03-25T11:26:07;99528.66;;;11.57;78.84
70544;BME280;58097;48.364;-1.224;2023-03-25T11:28:40;99534.88;;;11.51;77.90
70544;BME280;58097;48.364;-1.224;2023-03-25T11:31:21;99535.56;;;11.61;79.35
70544;BME280;58097;48.364;-1.224;2023-03-25T11:36:39;99532.03;;;11.75;79.51
70544;BME280;58097;48.364;-1.224;2023-03-25T11:39:33;99538.63;;;11.82;79.58
70544;BME280;58097;48.364;-1.224;2023-03-25T11:42:26;99537.75;;;11.82;77.22
70544;BME280;58097;48.364;-1.224;2023-03-25T11:44:54;99529.44;;;11.90;78.16
70544;BME280;58097;48.364;-1.224;2023-03-25T11:47:32;99526.69;;;11.82;77.08
70544;BME280;58097;48.364;-1.224;2023-03-25T11:49:57;99525.66;;;11.74;76.41
70544;BME280;58097;48.364;-1.224;2023-03-25T11:52:26;99531.34;;;11.73;76.48
70544;BME280;58097;48.364;-1.224;2023-03-25T11:54:55;99520.66;;;11.78;77.41
70544;BME280;58097;48.364;-1.224;2023-03-25T11:57:26;99517.50;;;11.81;76.50
70544;BME280;58097;48.364;-1.224;2023-03-25T12:00:04;99520.97;;;11.91;76.72
70544;BME280;58097;48.364;-1.224;2023-03-25T12:02:38;99514.69;;;11.97;76.60
70544;BME280;58097;48.364;-1.224;2023-03-25T12:07:48;99510.88;;;11.98;75.69
70544;BME280;58097;48.364;-1.224;2023-03-25T12:10:17;99508.16;;;11.90;74.88
70544;BME280;58097;48.364;-1.224;2023-03-25T12:12:49;99509.88;;;11.91;76.18
70544;BME280;58097;48.364;-1.224;2023-03-25T12:34:56;99503.38;;;12.07;74.56
70544;BME280;58097;48.364;-1.224;2023-03-25T12:37:29;99496.63;;;12.09;73.66
70544;BME280;58097;48.364;-1.224;2023-03-25T12:55:58;99481.78;;;12.33;73.19
70544;BME280;58097;48.364;-1.224;2023-03-25T13:11:54;99458.97;;;12.92;72.33
70544;BME280;58097;48.364;-1.224;2023-03-25T13:14:24;99456.88;;;12.94;71.71
70544;BME280;58097;48.364;-1.224;2023-03-25T13:16:54;99454.38;;;12.99;71.04
70544;BME280;58097;48.364;-1.224;2023-03-25T13:19:27;99457.47;;;13.04;70.03
70544;BME280;58097;48.364;-1.224;2023-03-25T13:21:58;99450.06;;;13.19;70.28
70544;BME280;58097;48.364;-1.224;2023-03-25T13:24:52;99445.13;;;13.44;69.88
70544;BME280;58097;48.364;-1.224;2023-03-25T13:27:20;99434.19;;;13.43;68.42
70544;BME280;58097;48.364;-1.224;2023-03-25T13:29:51;99426.25;;;13.40;68.88
70544;BME280;58097;48.364;-1.224;2023-03-25T13:32:27;99418.09;;;13.23;68.30
70544;BME280;58097;48.364;-1.224;2023-03-25T13:35:02;99426.88;;;13.12;70.25
70544;BME280;58097;48.364;-1.224;2023-03-25T13:37:40;99407.59;;;13.19;71.38
70544;BME280;58097;48.364;-1.224;2023-03-25T13:40:19;99404.91;;;13.40;72.74
70544;BME280;58097;48.364;-1.224;2023-03-25T13:43:14;99408.91;;;13.52;70.84
70544;BME280;58097;48.364;-1.224;2023-03-25T13:45:46;99408.94;;;13.67;70.73
70544;BME280;58097;48.364;-1.224;2023-03-25T13:51:15;99413.97;;;13.93;71.21
70544;BME280;58097;48.364;-1.224;2023-03-25T13:53:51;99405.81;;;13.91;70.60
70544;BME280;58097;48.364;-1.224;2023-03-25T14:01:27;99401.53;;;13.89;70.75
70544;BME280;58097;48.364;-1.224;2023-03-25T14:10:27;99386.44;;;13.98;71.49
70544;BME280;58097;48.364;-1.224;2023-03-25T14:12:56;99390.53;;;14.17;70.77
70544;BME280;58097;48.364;-1.224;2023-03-25T14:15:29;99392.31;;;14.24;69.04
70544;BME280;58097;48.364;-1.224;2023-03-25T14:17:57;99396.72;;;14.40;69.71
70544;BME280;58097;48.364;-1.224;2023-03-25T14:20:27;99388.97;;;14.50;68.40
70544;BME280;58097;48.364;-1.224;2023-03-25T14:22:58;99385.03;;;14.45;67.71
70544;BME280;58097;48.364;-1.224;2023-03-25T14:25:53;99392.22;;;14.39;68.42
70544;BME280;58097;48.364;-1.224;2023-03-25T14:28:39;99387.91;;;14.15;67.03
70544;BME280;58097;48.364;-1.224;2023-03-25T14:37:08;99381.19;;;14.24;66.29
70544;BME280;58097;48.364;-1.224;2023-03-25T14:44:21;99386.41;;;14.49;66.48
70544;BME280;58097;48.364;-1.224;2023-03-25T14:46:46;99380.63;;;14.50;66.78
70544;BME280;58097;48.364;-1.224;2023-03-25T14:49:20;99384.28;;;14.51;67.80
70544;BME280;58097;48.364;-1.224;2023-03-25T14:51:55;99385.81;;;14.39;67.39
70544;BME280;58097;48.364;-1.224;2023-03-25T14:54:31;99395.94;;;14.25;68.37
70544;BME280;58097;48.364;-1.224;2023-03-25T14:57:06;99386.09;;;14.22;68.09
70544;BME280;58097;48.364;-1.224;2023-03-25T14:59:37;99373.94;;;14.09;66.25
70544;BME280;58097;48.364;-1.224;2023-03-25T15:02:15;99355.28;;;14.03;65.99
70544;BME280;58097;48.364;-1.224;2023-03-25T15:04:43;99364.22;;;13.98;66.43
70544;BME280;58097;48.364;-1.224;2023-03-25T15:07:14;99367.47;;;14.02;63.17
70544;BME280;58097;48.364;-1.224;2023-03-25T15:09:50;99363.03;;;14.07;62.17
70544;BME280;58097;48.364;-1.224;2023-03-25T15:12:19;99358.59;;;14.13;62.90
70544;BME280;58097;48.364;-1.224;2023-03-25T15:14:49;99354.97;;;14.12;63.43
70544;BME280;58097;48.364;-1.224;2023-03-25T15:17:38;99351.53;;;14.10;62.29
70544;BME280;58097;48.364;-1.224;2023-03-25T15:22:36;99335.00;;;14.02;61.96
70544;BME280;58097;48.364;-1.224;2023-03-25T15:25:10;99330.81;;;13.91;60.83
70544;BME280;58097;48.364;-1.224;2023-03-25T15:51:54;99283.78;;;13.32;62.08
70544;BME280;58097;48.364;-1.224;2023-03-25T15:54:37;99269.91;;;13.32;62.13
70544;BME280;58097;48.364;-1.224;2023-03-25T15:57:12;99266.16;;;13.25;62.04
70544;BME280;58097;48.364;-1.224;2023-03-25T15:59:54;99262.72;;;13.23;62.79
70544;BME280;58097;48.364;-1.224;2023-03-25T16:02:29;99245.88;;;13.25;63.31
70544;BME280;58097;48.364;-1.224;2023-03-25T16:04:55;99251.16;;;13.35;64.05
70544;BME280;58097;48.364;-1.224;2023-03-25T16:07:22;99257.22;;;13.45;63.66